createdAt,value
2019-04-04T00:02:58.682Z,9.90
2019-04-04T00:08:23.182Z,9.90
2019-04-04T00:13:47.691Z,9.90
2019-04-04T00:19:05.436Z,9.90
2019-04-04T00:24:10.519Z,9.90
2019-04-04T00:29:17.296Z,9.80
2019-04-04T00:34:22.513Z,9.80
2019-04-04T00:39:27.492Z,9.90
2019-04-04T00:44:32.747Z,9.90
2019-04-04T00:49:57.329Z,9.90
2019-04-04T00:55:02.455Z,9.80
2019-04-04T01:00:09.412Z,9.70
2019-04-04T01:05:14.696Z,9.70
2019-04-04T01:10:19.860Z,9.70
2019-04-04T01:15:44.069Z,9.60
2019-04-04T01:20:50.670Z,9.60
2019-04-04T01:25:56.387Z,9.50
2019-04-04T01:31:21.246Z,9.30
2019-04-04T01:36:38.481Z,9.30
2019-04-04T01:41:43.821Z,9.20
2019-04-04T01:47:08.304Z,9.10
2019-04-04T01:52:13.741Z,9.00
2019-04-04T01:57:19.054Z,9.00
2019-04-04T02:02:24.174Z,8.90
2019-04-04T02:07:29.789Z,8.80
2019-04-04T02:12:38.573Z,8.80
2019-04-04T02:17:42.400Z,8.70
2019-04-04T02:22:47.593Z,8.60
2019-04-04T02:28:12.230Z,8.50
2019-04-04T02:33:17.249Z,8.40
2019-04-04T02:38:27.159Z,8.40
2019-04-04T02:43:29.098Z,8.40
2019-04-04T02:48:34.272Z,8.40
2019-04-04T02:53:39.406Z,8.40
2019-04-04T02:58:46.480Z,8.40
2019-04-04T03:03:51.058Z,8.30
2019-04-04T03:09:15.541Z,8.20
2019-04-04T03:14:40.143Z,8.20
2019-04-04T03:19:45.466Z,8.20
2019-04-04T03:25:14.330Z,8.10
2019-04-04T03:30:17.432Z,8.00
2019-04-04T03:35:28.045Z,8.00
2019-04-04T03:40:49.105Z,7.90
2019-04-04T03:45:54.289Z,7.90
2019-04-04T03:51:18.602Z,7.80
2019-04-04T03:56:39.161Z,7.70
2019-04-04T04:01:45.415Z,7.70
2019-04-04T04:06:49.298Z,7.60
2019-04-04T04:11:54.523Z,7.60
2019-04-04T04:16:59.622Z,7.60
2019-04-04T04:22:04.713Z,7.50
2019-04-04T04:27:14.481Z,7.40
2019-04-04T04:32:37.353Z,7.30
2019-04-04T04:37:42.685Z,7.20
2019-04-04T04:42:47.768Z,7.20
2019-04-04T04:48:12.224Z,7.20
2019-04-04T04:53:18.754Z,7.20
2019-04-04T04:58:24.110Z,7.20
2019-04-04T05:03:29.102Z,7.10
2019-04-04T05:08:34.318Z,7.20
2019-04-04T05:13:39.315Z,7.20
2019-04-04T05:18:47.493Z,7.20
2019-04-04T05:23:51.077Z,7.30
2019-04-04T05:28:57.179Z,7.30
2019-04-04T05:34:02.267Z,7.40
2019-04-04T05:39:08.914Z,7.50
2019-04-04T05:44:13.923Z,7.60
2019-04-04T05:49:38.871Z,7.70
2019-04-04T05:54:44.459Z,7.90
2019-04-04T05:59:49.361Z,7.90
2019-04-04T06:04:55.364Z,7.90
2019-04-04T06:10:00.835Z,8.10
2019-04-04T06:15:07.519Z,8.20
2019-04-04T06:20:13.040Z,8.30
2019-04-04T06:25:19.380Z,8.40
2019-04-04T06:30:43.917Z,8.60
2019-04-04T06:35:48.907Z,8.80
2019-04-04T06:40:53.714Z,8.90
2019-04-04T06:45:58.973Z,9.00
2019-04-04T06:51:23.489Z,9.10
2019-04-04T06:56:31.813Z,9.20
2019-04-04T07:01:54.524Z,9.40
2019-04-04T07:06:59.350Z,9.60
2019-04-04T07:12:06.495Z,9.80
2019-04-04T07:17:30.829Z,9.80
2019-04-04T07:22:55.927Z,10.10
2019-04-04T07:28:01.601Z,10.40
2019-04-04T07:33:06.934Z,10.60
2019-04-04T07:38:12.063Z,10.80
2019-04-04T07:43:19.390Z,11.10
2019-04-04T07:48:24.140Z,11.40
2019-04-04T07:53:29.463Z,11.60
2019-04-04T07:58:34.760Z,11.90
2019-04-04T08:03:40.139Z,12.10
2019-04-04T08:08:45.095Z,12.50
2019-04-04T08:13:50.539Z,12.80
2019-04-04T08:18:55.763Z,12.70
2019-04-04T08:24:00.939Z,12.60
2019-04-04T08:29:06.280Z,12.60
2019-04-04T08:34:11.563Z,13.00
2019-04-04T08:39:17.237Z,13.10
2019-04-04T08:44:22.366Z,13.30
2019-04-04T08:49:27.502Z,13.50
2019-04-04T08:54:51.903Z,14.00
2019-04-04T08:59:57.050Z,14.40
2019-04-04T09:05:11.751Z,14.90
2019-04-04T09:10:09.059Z,15.10
2019-04-04T09:15:14.391Z,15.20
2019-04-04T09:20:19.336Z,15.50
2019-04-04T09:25:25.112Z,15.80
2019-04-04T09:30:30.070Z,16.10
2019-04-04T09:35:35.302Z,16.50
2019-04-04T09:40:40.220Z,16.80
2019-04-04T09:45:45.679Z,16.90
2019-04-04T09:50:50.959Z,17.10
2019-04-04T09:55:55.913Z,17.20
2019-04-04T10:01:00.968Z,17.40
2019-04-04T10:06:06.130Z,17.60
2019-04-04T10:11:11.076Z,17.70
2019-04-04T10:16:15.918Z,18.00
2019-04-04T10:21:21.060Z,18.10
2019-04-04T10:26:26.022Z,18.60
2019-04-04T10:31:30.872Z,18.70
2019-04-04T10:36:35.838Z,18.80
2019-04-04T10:41:41.424Z,18.70
2019-04-04T10:46:46.222Z,18.90
2019-04-04T10:51:51.409Z,19.10
2019-04-04T10:56:56.474Z,19.30
2019-04-04T11:02:01.379Z,19.60
2019-04-04T11:07:06.331Z,19.70
2019-04-04T11:12:11.397Z,19.80
2019-04-04T11:17:17.475Z,19.90
2019-04-04T11:22:22.546Z,20.10
2019-04-04T11:27:27.669Z,19.90
2019-04-04T11:32:32.637Z,20.00
2019-04-04T11:37:37.738Z,19.70
2019-04-04T11:42:42.833Z,19.80
2019-04-04T11:47:47.778Z,20.10
2019-04-04T11:52:52.828Z,20.10
2019-04-04T11:57:58.030Z,20.20
2019-04-04T12:03:03.001Z,20.40
2019-04-04T12:08:08.179Z,20.60
2019-04-04T12:13:13.379Z,20.60
2019-04-04T12:18:18.458Z,20.80
2019-04-04T12:23:23.660Z,20.10
2019-04-04T12:28:28.922Z,20.30
2019-04-04T12:33:34.092Z,20.60
2019-04-04T12:38:39.395Z,20.70
2019-04-04T12:43:44.730Z,20.80
2019-04-04T12:48:49.824Z,20.70
2019-04-04T12:53:54.766Z,21.00
2019-04-04T12:58:59.996Z,21.10
2019-04-04T13:04:05.286Z,21.10
2019-04-04T13:09:10.255Z,21.20
2019-04-04T13:14:15.179Z,21.20
2019-04-04T13:19:20.079Z,21.20
2019-04-04T13:24:25.328Z,21.20
2019-04-04T13:29:30.528Z,21.20
2019-04-04T13:34:35.452Z,21.30
2019-04-04T13:39:40.675Z,21.30
2019-04-04T13:44:45.588Z,21.10
2019-04-04T13:49:50.517Z,20.90
2019-04-04T13:54:55.921Z,20.90
2019-04-04T14:00:01.413Z,21.00
2019-04-04T14:05:09.986Z,21.10
2019-04-04T14:10:17.508Z,20.90
2019-04-04T14:15:21.987Z,20.80
2019-04-04T14:20:26.934Z,20.70
2019-04-04T14:25:32.082Z,20.60
2019-04-04T14:30:37.219Z,20.50
2019-04-04T14:35:43.034Z,20.40
2019-04-04T14:40:48.178Z,20.30
2019-04-04T14:45:53.425Z,20.20
2019-04-04T14:50:58.626Z,20.20
2019-04-04T14:56:03.878Z,20.00
2019-04-04T15:01:09.177Z,20.00
2019-04-04T15:06:14.299Z,19.80
2019-04-04T15:11:24.481Z,19.60
2019-04-04T15:16:26.480Z,19.70
2019-04-04T15:21:31.788Z,19.70
2019-04-04T15:26:36.710Z,19.60
2019-04-04T15:31:41.710Z,19.40
2019-04-04T15:36:47.114Z,19.20
2019-04-04T15:41:52.391Z,18.70
2019-04-04T15:46:57.633Z,18.80
2019-04-04T15:52:02.575Z,18.70
2019-04-04T15:57:07.781Z,18.70
2019-04-04T16:02:12.691Z,18.50
2019-04-04T16:07:17.879Z,18.40
2019-04-04T16:12:23.232Z,18.20
2019-04-04T16:17:28.341Z,18.10
2019-04-04T16:22:33.323Z,17.90
2019-04-04T16:27:38.272Z,17.60
2019-04-04T16:32:43.440Z,17.40
2019-04-04T16:37:48.801Z,17.20
2019-04-04T16:42:53.882Z,17.10
2019-04-04T16:47:59.121Z,16.90
2019-04-04T16:53:04.692Z,16.70
2019-04-04T16:58:09.690Z,16.60
2019-04-04T17:03:15.018Z,16.50
2019-04-04T17:08:20.272Z,16.20
2019-04-04T17:13:25.999Z,16.10
2019-04-04T17:18:31.046Z,16.00
2019-04-04T17:23:36.282Z,15.80
2019-04-04T17:28:41.520Z,15.70
2019-04-04T17:33:47.104Z,15.50
2019-04-04T17:38:54.934Z,15.30
2019-04-04T17:43:59.289Z,15.20
2019-04-04T17:49:41.045Z,15.00
2019-04-04T17:54:46.677Z,14.90
2019-04-04T17:59:57.899Z,14.80
2019-04-04T18:11:11.894Z,14.60
2019-04-04T18:16:18.375Z,14.50
2019-04-04T18:21:24.013Z,14.50
2019-04-04T18:26:29.572Z,14.40
2019-04-04T18:31:35.491Z,14.30
2019-04-04T18:36:41.451Z,14.30
2019-04-04T18:41:47.528Z,14.10
2019-04-04T18:46:52.563Z,14.10
2019-04-04T18:51:57.856Z,14.00
2019-04-04T18:57:02.865Z,14.00
2019-04-04T19:02:19.734Z,13.90
2019-04-04T19:07:25.494Z,13.90
2019-04-04T19:12:30.987Z,13.90
2019-04-04T19:17:36.205Z,13.90
2019-04-04T19:22:41.568Z,13.90
2019-04-04T19:27:46.947Z,13.90
2019-04-04T19:32:52.286Z,13.90
2019-04-04T19:38:00.359Z,13.90
2019-04-04T19:43:17.174Z,13.80
2019-04-04T19:48:11.533Z,13.70
2019-04-04T19:53:16.933Z,13.60
2019-04-04T19:58:22.087Z,13.50
2019-04-04T20:03:27.516Z,13.50
2019-04-04T20:08:32.717Z,13.30
2019-04-04T20:13:38.248Z,13.20
2019-04-04T20:18:43.887Z,13.10
2019-04-04T20:23:49.365Z,13.10
2019-04-04T20:28:54.727Z,13.10
2019-04-04T20:34:01.961Z,13.20
2019-04-04T20:39:08.564Z,13.20
2019-04-04T20:44:13.766Z,13.30
2019-04-04T20:49:18.988Z,13.30
2019-04-04T20:54:24.293Z,13.30
2019-04-04T20:59:29.881Z,13.30
2019-04-04T21:04:35.305Z,13.20
2019-04-04T21:09:40.835Z,13.20
2019-04-04T21:14:46.355Z,13.10
2019-04-04T21:19:51.737Z,13.10
2019-04-04T21:24:56.933Z,12.90
2019-04-04T21:30:02.205Z,12.80
2019-04-04T21:35:07.564Z,12.70
2019-04-04T21:40:13.071Z,12.50
2019-04-04T21:45:18.046Z,12.40
2019-04-04T21:50:23.284Z,12.30
2019-04-04T21:55:28.822Z,12.20
2019-04-04T22:00:35.837Z,12.00
2019-04-04T22:05:41.540Z,11.90
2019-04-04T22:10:47.132Z,11.80
2019-04-04T22:15:52.491Z,11.60
2019-04-04T22:20:57.688Z,11.50
2019-04-04T22:26:03.115Z,11.30
2019-04-04T22:31:08.660Z,11.20
2019-04-04T22:36:14.071Z,11.00
2019-04-04T22:41:19.154Z,10.90
2019-04-04T22:46:27.560Z,10.70
2019-04-04T22:51:32.817Z,10.60
2019-04-04T22:56:38.114Z,10.40
2019-04-04T23:01:43.536Z,10.30
2019-04-04T23:06:48.511Z,10.20
2019-04-04T23:11:53.876Z,10.10
2019-04-04T23:16:59.262Z,10.00
2019-04-04T23:22:04.632Z,9.90
2019-04-04T23:27:09.983Z,9.80
2019-04-04T23:32:15.328Z,9.60
2019-04-04T23:37:26.370Z,9.50
2019-04-04T23:42:31.558Z,9.50
2019-04-04T23:47:42.863Z,9.30
2019-04-04T23:52:43.731Z,9.20
2019-04-04T23:58:08.149Z,9.10
